Cazaux (BA 120) Air Base

METAR LFBD TAF LFBD
7 °C
1
°C
-
6
°C
24m
Alter
15:23:58
LT
14:23
UTC
0 ft

1.000

2.000

3.000

4.000

5.000

SCT 3.000
OVC 4.100
VFR
<?= Yii::t('app', 'Wind direction') ?> <?= Yii::t('app', 'of'); ?>
360°
18:03
Sonne unter
66%
Luftfeuchtigkeit
Windscherung
Geschlossen/Schnee
RWY-Sichtweite
RWY Zustand
Vert. Sichtweite
Min. Sichtbarkeit
CAVOK
Trend
Korrektur
Besonderer Bericht
1021 hPa
QNH
METAR LFBD 271400Z AUTO 36009KT 330V050 9999 SCT030 OVC041 07/01 Q1021 NOSIG
Himmel bedeckt
8 kt
8 kt
15:00
MVFR
10 kt
16:00
MVFR
10 kt
17:00
MVFR
10 kt
18:00
MVFR
10 kt
19:00
MVFR
10 kt
20:00
MVFR
10 kt
21:00
MVFR
10 kt
10 km+
Sichtweite
4.100 ft
Wolkendecke
9 kt
Wind
metar-taf.com/LFBC

Metar-Taf.com

Visueller Decoder

Wir und Dritte verfolgen dein Internetverhalten auf unserer Website mit Cookies. Wenn du fortfährst, gehen wir davon aus, dass du mit unserer Cookie-Richtlinie einverstanden bist.